createdAt,value
2019-01-26T00:01:00.241Z,7.50
2019-01-26T00:03:28.464Z,8.70
2019-01-26T00:05:56.723Z,9.48
2019-01-26T00:08:24.962Z,7.83
2019-01-26T00:10:53.220Z,7.60
2019-01-26T00:13:21.467Z,7.72
2019-01-26T00:15:49.705Z,7.80
2019-01-26T00:18:17.960Z,6.85
2019-01-26T00:20:46.224Z,7.72
2019-01-26T00:23:14.466Z,8.00
2019-01-26T00:25:42.733Z,8.90
2019-01-26T00:28:10.976Z,8.20
2019-01-26T00:30:39.212Z,8.08
2019-01-26T00:33:07.462Z,7.62
2019-01-26T00:35:35.706Z,7.80
2019-01-26T00:38:04.222Z,8.33
2019-01-26T00:40:32.466Z,8.18
2019-01-26T00:43:00.714Z,6.22
2019-01-26T00:45:28.961Z,8.08
2019-01-26T00:47:57.200Z,8.53
2019-01-26T00:50:25.482Z,7.90
2019-01-26T00:52:53.727Z,7.75
2019-01-26T00:55:21.987Z,7.70
2019-01-26T00:57:50.229Z,7.40
2019-01-26T01:00:22.270Z,7.83
2019-01-26T01:02:50.517Z,7.85
2019-01-26T01:05:18.768Z,8.05
2019-01-26T01:07:47.032Z,8.23
2019-01-26T01:10:17.389Z,7.00
2019-01-26T01:12:45.662Z,8.18
2019-01-26T01:15:23.226Z,8.88
2019-01-26T01:17:51.960Z,8.15
2019-01-26T01:20:20.279Z,7.78
2019-01-26T01:22:48.525Z,8.55
2019-01-26T01:25:16.762Z,8.33
2019-01-26T01:27:45.029Z,8.25
2019-01-26T01:30:16.527Z,8.60
2019-01-26T01:32:44.755Z,7.85
2019-01-26T01:35:13.017Z,8.28
2019-01-26T01:37:41.277Z,7.60
2019-01-26T01:40:11.737Z,8.35
2019-01-26T01:42:40.633Z,7.87
2019-01-26T01:45:12.308Z,9.83
2019-01-26T01:47:40.594Z,9.60
2019-01-26T01:50:09.821Z,9.43
2019-01-26T01:52:38.140Z,8.10
2019-01-26T01:55:09.115Z,7.97
2019-01-26T01:57:37.353Z,8.15
2019-01-26T02:00:11.540Z,8.05
2019-01-26T02:02:39.784Z,8.78
2019-01-26T02:05:08.115Z,7.53
2019-01-26T02:07:36.359Z,7.33
2019-01-26T02:10:07.688Z,8.25
2019-01-26T02:12:35.937Z,7.72
2019-01-26T02:15:05.510Z,7.33
2019-01-26T02:17:33.760Z,7.75
2019-01-26T02:20:01.997Z,9.03
2019-01-26T02:22:30.242Z,8.38
2019-01-26T02:24:58.488Z,7.37
2019-01-26T02:27:26.735Z,8.20
2019-01-26T02:29:54.996Z,7.78
2019-01-26T02:32:23.255Z,9.00
2019-01-26T02:34:51.531Z,8.28
2019-01-26T02:37:19.775Z,9.53
2019-01-26T02:39:48.028Z,9.28
2019-01-26T02:42:16.253Z,8.65
2019-01-26T02:44:44.557Z,9.55
2019-01-26T02:47:12.849Z,8.15
2019-01-26T02:49:41.106Z,8.50
2019-01-26T02:52:09.409Z,8.13
2019-01-26T02:54:37.683Z,8.25
2019-01-26T02:57:05.914Z,8.35
2019-01-26T02:59:34.187Z,7.67
2019-01-26T03:02:02.425Z,7.97
2019-01-26T03:04:30.685Z,7.15
2019-01-26T03:06:58.920Z,8.18
2019-01-26T03:09:27.159Z,9.25
2019-01-26T03:11:55.428Z,9.10
2019-01-26T03:14:23.659Z,8.38
2019-01-26T03:16:51.899Z,9.05
2019-01-26T03:19:20.148Z,9.50
2019-01-26T03:21:48.397Z,7.70
2019-01-26T03:24:16.649Z,8.43
2019-01-26T03:26:44.882Z,9.28
2019-01-26T03:29:13.123Z,7.78
2019-01-26T03:31:41.387Z,8.45
2019-01-26T03:34:09.610Z,9.20
2019-01-26T03:36:37.898Z,8.33
2019-01-26T03:39:07.499Z,8.55
2019-01-26T03:41:35.741Z,8.33
2019-01-26T03:44:03.971Z,8.30
2019-01-26T03:46:32.223Z,8.35
2019-01-26T03:49:00.472Z,8.75
2019-01-26T03:51:28.713Z,8.68
2019-01-26T03:53:56.981Z,8.53
2019-01-26T03:56:25.294Z,8.53
2019-01-26T03:58:53.553Z,8.73
2019-01-26T04:01:21.785Z,7.92
2019-01-26T04:03:50.070Z,8.98
2019-01-26T04:06:18.310Z,9.28
2019-01-26T04:08:46.581Z,9.33
2019-01-26T04:11:14.807Z,9.20
2019-01-26T04:13:43.055Z,9.50
2019-01-26T04:16:11.311Z,9.90
2019-01-26T04:18:39.577Z,8.93
2019-01-26T04:21:07.824Z,10.53
2019-01-26T04:23:36.075Z,9.50
2019-01-26T04:26:04.333Z,10.00
2019-01-26T04:28:32.589Z,8.95
2019-01-26T04:31:00.834Z,9.30
2019-01-26T04:33:29.073Z,9.23
2019-01-26T04:35:57.326Z,8.20
2019-01-26T04:38:25.558Z,9.40
2019-01-26T04:40:53.806Z,9.08
2019-01-26T04:43:22.041Z,7.90
2019-01-26T04:45:50.278Z,8.60
2019-01-26T04:48:18.543Z,8.90
2019-01-26T04:50:46.790Z,7.20
2019-01-26T04:53:15.058Z,7.53
2019-01-26T04:55:43.287Z,7.22
2019-01-26T04:58:11.541Z,7.92
2019-01-26T05:00:39.798Z,8.13
2019-01-26T05:03:08.097Z,7.28
2019-01-26T05:05:36.338Z,6.45
2019-01-26T05:08:04.587Z,6.90
2019-01-26T05:10:32.842Z,6.60
2019-01-26T05:13:01.095Z,6.80
2019-01-26T05:15:29.356Z,6.78
2019-01-26T05:17:57.603Z,6.47
2019-01-26T05:20:25.838Z,6.00
2019-01-26T05:22:54.088Z,6.15
2019-01-26T05:25:22.355Z,6.83
2019-01-26T05:27:50.595Z,6.28
2019-01-26T05:30:21.404Z,5.90
2019-01-26T05:32:49.638Z,6.55
2019-01-26T05:35:17.868Z,6.83
2019-01-26T05:37:46.143Z,6.45
2019-01-26T05:40:16.368Z,5.95
2019-01-26T05:42:44.633Z,6.08
2019-01-26T05:45:15.326Z,6.15
2019-01-26T05:47:49.096Z,5.40
2019-01-26T05:50:16.810Z,5.75
2019-01-26T05:52:45.127Z,6.70
2019-01-26T05:55:13.352Z,6.30
2019-01-26T05:57:41.607Z,5.33
2019-01-26T06:00:13.175Z,4.87
2019-01-26T06:02:41.414Z,5.33
2019-01-26T06:05:09.659Z,5.60
2019-01-26T06:07:37.919Z,5.30
2019-01-26T06:10:07.399Z,5.55
2019-01-26T06:12:35.630Z,5.12
2019-01-26T06:15:05.551Z,4.40
2019-01-26T06:17:33.790Z,4.42
2019-01-26T06:20:02.020Z,4.47
2019-01-26T06:22:30.262Z,4.30
2019-01-26T06:24:58.510Z,3.55
2019-01-26T06:27:26.774Z,4.20
2019-01-26T06:29:54.996Z,4.50
2019-01-26T06:32:23.246Z,4.97
2019-01-26T06:34:51.484Z,4.37
2019-01-26T06:37:19.780Z,5.05
2019-01-26T06:39:48.011Z,4.53
2019-01-26T06:42:16.294Z,3.65
2019-01-26T06:44:44.538Z,3.58
2019-01-26T06:47:12.793Z,4.05
2019-01-26T06:49:41.021Z,3.60
2019-01-26T06:52:09.269Z,4.47
2019-01-26T06:54:37.523Z,4.25
2019-01-26T06:57:05.763Z,4.22
2019-01-26T06:59:34.013Z,3.75
2019-01-26T07:02:02.242Z,4.25
2019-01-26T07:04:37.925Z,3.67
2019-01-26T07:07:07.729Z,3.60
2019-01-26T07:09:35.968Z,3.83
2019-01-26T07:12:04.218Z,3.55
2019-01-26T07:14:32.459Z,4.22
2019-01-26T07:17:00.704Z,3.60
2019-01-26T07:19:28.948Z,3.55
2019-01-26T07:21:57.199Z,3.60
2019-01-26T07:24:25.430Z,4.37
2019-01-26T07:26:53.683Z,4.35
2019-01-26T07:29:21.920Z,3.90
2019-01-26T07:31:50.166Z,3.77
2019-01-26T07:34:18.408Z,3.85
2019-01-26T07:36:46.672Z,4.33
2019-01-26T07:39:14.931Z,4.50
2019-01-26T07:41:43.164Z,4.55
2019-01-26T07:44:11.435Z,3.85
2019-01-26T07:46:39.661Z,4.08
2019-01-26T07:49:09.392Z,5.95
2019-01-26T07:51:37.841Z,9.73
2019-01-26T07:54:06.072Z,3.98
2019-01-26T07:56:34.325Z,3.00
2019-01-26T07:59:02.553Z,3.33
2019-01-26T08:01:30.825Z,3.30
2019-01-26T08:03:59.061Z,3.37
2019-01-26T08:06:27.307Z,4.22
2019-01-26T08:08:55.565Z,3.35
2019-01-26T08:11:23.812Z,3.90
2019-01-26T08:13:52.055Z,3.20
2019-01-26T08:16:20.339Z,3.35
2019-01-26T08:18:48.569Z,2.83
2019-01-26T08:21:16.815Z,3.22
2019-01-26T08:23:45.147Z,2.60
2019-01-26T08:26:13.383Z,3.22
2019-01-26T08:28:41.634Z,3.15
2019-01-26T08:31:09.871Z,2.30
2019-01-26T08:33:38.134Z,2.45
2019-01-26T08:36:06.361Z,2.70
2019-01-26T08:38:34.621Z,2.77
2019-01-26T08:41:02.851Z,2.75
2019-01-26T08:43:31.111Z,2.72
2019-01-26T08:46:00.230Z,2.67
2019-01-26T08:48:31.349Z,2.25
2019-01-26T08:50:58.445Z,2.67
2019-01-26T08:53:26.691Z,2.72
2019-01-26T08:55:54.951Z,3.20
2019-01-26T08:58:23.188Z,3.35
2019-01-26T09:00:51.447Z,2.60
2019-01-26T09:03:30.492Z,3.08
2019-01-26T09:06:03.100Z,3.00
2019-01-26T09:08:31.330Z,3.70
2019-01-26T09:10:59.604Z,3.70
2019-01-26T09:13:27.847Z,3.45
2019-01-26T09:15:56.074Z,3.50
2019-01-26T09:18:24.351Z,6.42
2019-01-26T09:20:52.606Z,3.90
2019-01-26T09:23:20.843Z,4.00
2019-01-26T09:25:49.104Z,4.62
2019-01-26T09:28:17.352Z,3.70
2019-01-26T09:30:45.591Z,3.67
2019-01-26T09:33:13.837Z,3.85
2019-01-26T09:35:42.084Z,4.12
2019-01-26T09:38:10.334Z,4.92
2019-01-26T09:40:38.585Z,4.30
2019-01-26T09:43:06.897Z,3.95
2019-01-26T09:45:35.162Z,4.72
2019-01-26T09:48:03.404Z,4.65
2019-01-26T09:50:31.648Z,4.85
2019-01-26T09:52:59.902Z,5.08
2019-01-26T09:55:28.152Z,4.25
2019-01-26T09:57:56.381Z,5.00
2019-01-26T10:00:28.771Z,5.17
2019-01-26T10:02:57.895Z,4.22
2019-01-26T10:05:27.635Z,4.05
2019-01-26T10:07:56.182Z,4.47
2019-01-26T10:10:24.449Z,4.62
2019-01-26T10:12:52.784Z,4.40
2019-01-26T10:15:23.187Z,4.35
2019-01-26T10:17:51.452Z,4.08
2019-01-26T10:20:22.577Z,4.08
2019-01-26T10:22:50.829Z,4.33
2019-01-26T10:25:19.091Z,4.33
2019-01-26T10:27:47.407Z,4.75
2019-01-26T10:30:40.785Z,4.15
2019-01-26T10:33:09.013Z,5.03
2019-01-26T10:35:53.995Z,4.72
2019-01-26T10:38:22.389Z,3.77
2019-01-26T10:40:55.116Z,4.60
2019-01-26T10:43:27.958Z,3.87
2019-01-26T10:45:56.210Z,4.72
2019-01-26T10:48:24.447Z,3.80
2019-01-26T10:50:52.722Z,4.00
2019-01-26T10:53:20.949Z,4.33
2019-01-26T10:55:49.192Z,3.98
2019-01-26T10:58:17.449Z,4.62
2019-01-26T11:00:45.710Z,4.15
2019-01-26T11:03:13.944Z,4.22
2019-01-26T11:05:42.203Z,4.60
2019-01-26T11:08:10.444Z,4.03
2019-01-26T11:10:38.725Z,3.67
2019-01-26T11:13:06.983Z,3.05
2019-01-26T11:15:35.212Z,3.47
2019-01-26T11:18:03.927Z,3.05
2019-01-26T11:20:32.161Z,3.25
2019-01-26T11:23:00.434Z,3.60
2019-01-26T11:25:28.680Z,3.70
2019-01-26T11:27:56.910Z,3.65
2019-01-26T11:30:26.815Z,3.37
2019-01-26T11:32:55.071Z,3.80
2019-01-26T11:35:24.960Z,3.30
2019-01-26T11:37:53.207Z,3.87
2019-01-26T11:40:24.441Z,3.52
2019-01-26T11:42:52.699Z,3.22
2019-01-26T11:45:28.765Z,3.35
2019-01-26T11:47:58.771Z,3.47
2019-01-26T11:50:28.716Z,3.30
2019-01-26T11:52:56.961Z,3.45
2019-01-26T11:55:26.851Z,3.08
2019-01-26T11:57:55.101Z,3.50
2019-01-26T12:00:27.931Z,3.25
2019-01-26T12:02:57.930Z,2.92
2019-01-26T12:05:27.826Z,3.20
2019-01-26T12:07:56.075Z,3.45
2019-01-26T12:10:24.319Z,2.70
2019-01-26T12:12:52.583Z,2.85
2019-01-26T12:15:20.817Z,3.27
2019-01-26T12:17:49.070Z,4.85
2019-01-26T12:20:17.576Z,4.12
2019-01-26T12:22:45.860Z,3.20
2019-01-26T12:25:14.090Z,2.50
2019-01-26T12:27:42.327Z,2.70
2019-01-26T12:30:15.267Z,2.75
2019-01-26T12:32:43.504Z,5.53
2019-01-26T12:35:13.836Z,3.25
2019-01-26T12:37:42.062Z,2.80
2019-01-26T12:40:12.723Z,7.00
2019-01-26T12:42:41.014Z,6.65
2019-01-26T12:45:12.891Z,22.67
2019-01-26T12:47:41.156Z,2.98
2019-01-26T12:50:11.420Z,3.42
2019-01-26T12:52:40.993Z,3.70
2019-01-26T12:55:12.292Z,5.60
2019-01-26T12:57:40.518Z,3.45
2019-01-26T13:00:17.921Z,3.45
2019-01-26T13:02:46.165Z,2.77
2019-01-26T13:05:14.398Z,3.55
2019-01-26T13:07:42.671Z,4.00
2019-01-26T13:10:14.481Z,5.25
2019-01-26T13:12:42.727Z,8.68
2019-01-26T13:15:15.192Z,5.65
2019-01-26T13:17:40.937Z,3.15
2019-01-26T13:20:12.718Z,3.70
2019-01-26T13:22:40.989Z,3.52
2019-01-26T13:25:12.066Z,2.77
2019-01-26T13:27:40.329Z,2.58
2019-01-26T13:30:17.301Z,2.70
2019-01-26T13:32:46.608Z,2.20
2019-01-26T13:35:15.237Z,2.58
2019-01-26T13:37:43.499Z,2.25
2019-01-26T13:40:21.111Z,2.85
2019-01-26T13:42:49.368Z,3.42
2019-01-26T13:45:17.612Z,3.17
2019-01-26T13:47:45.851Z,3.67
2019-01-26T13:50:14.113Z,7.78
2019-01-26T13:52:42.369Z,10.98
2019-01-26T13:55:16.044Z,6.47
2019-01-26T13:57:44.309Z,11.08
2019-01-26T14:00:30.310Z,16.27
2019-01-26T14:02:58.580Z,8.08
2019-01-26T14:05:26.844Z,9.18
2019-01-26T14:07:55.066Z,2.80
2019-01-26T14:10:24.568Z,2.52
2019-01-26T14:12:52.799Z,2.50
2019-01-26T14:15:22.291Z,3.90
2019-01-26T14:17:50.609Z,2.15
2019-01-26T14:20:27.764Z,2.45
2019-01-26T14:22:56.024Z,4.45
2019-01-26T14:25:24.794Z,7.92
2019-01-26T14:27:53.067Z,9.03
2019-01-26T14:30:27.291Z,14.55
2019-01-26T14:32:55.523Z,7.62
2019-01-26T14:35:23.867Z,4.28
2019-01-26T14:37:52.116Z,6.85
2019-01-26T14:40:20.381Z,5.53
2019-01-26T14:42:54.184Z,4.00
2019-01-26T14:45:18.830Z,4.42
2019-01-26T14:47:47.107Z,5.72
2019-01-26T14:50:16.704Z,9.78
2019-01-26T14:52:45.091Z,38.90
2019-01-26T14:55:21.792Z,21.45
2019-01-26T14:57:50.032Z,28.87
2019-01-26T15:00:23.865Z,28.02
2019-01-26T15:02:52.123Z,39.70
2019-01-26T15:05:20.374Z,12.18
2019-01-26T15:07:48.661Z,27.60
2019-01-26T15:10:16.908Z,10.08
2019-01-26T15:12:45.140Z,8.70
2019-01-26T15:15:18.862Z,3.90
2019-01-26T15:17:47.164Z,5.33
2019-01-26T15:20:18.315Z,4.80
2019-01-26T15:22:46.542Z,3.42
2019-01-26T15:25:14.781Z,2.80
2019-01-26T15:27:43.070Z,2.65
2019-01-26T15:30:20.417Z,2.90
2019-01-26T15:32:48.655Z,3.37
2019-01-26T15:35:16.918Z,2.95
2019-01-26T15:37:45.146Z,3.22
2019-01-26T15:40:13.796Z,3.12
2019-01-26T15:42:42.026Z,3.55
2019-01-26T15:45:13.661Z,2.20
2019-01-26T15:47:41.926Z,2.00
2019-01-26T15:50:13.176Z,2.80
2019-01-26T15:52:41.662Z,2.60
2019-01-26T15:55:13.230Z,2.47
2019-01-26T15:57:41.496Z,3.72
2019-01-26T16:00:15.696Z,4.20
2019-01-26T16:02:43.929Z,3.72
2019-01-26T16:05:12.192Z,3.37
2019-01-26T16:07:40.440Z,3.25
2019-01-26T16:10:12.191Z,3.80
2019-01-26T16:12:40.421Z,3.47
2019-01-26T16:15:11.885Z,3.67
2019-01-26T16:17:40.125Z,3.55
2019-01-26T16:20:11.379Z,3.27
2019-01-26T16:22:39.605Z,2.95
2019-01-26T16:25:08.997Z,3.10
2019-01-26T16:27:37.249Z,3.10
2019-01-26T16:30:08.756Z,5.08
2019-01-26T16:32:37.021Z,3.45
2019-01-26T16:35:08.550Z,2.83
2019-01-26T16:37:36.820Z,5.50
2019-01-26T16:40:14.075Z,4.75
2019-01-26T16:42:42.321Z,10.70
2019-01-26T16:45:13.654Z,6.78
2019-01-26T16:47:41.914Z,5.33
2019-01-26T16:50:16.093Z,5.37
2019-01-26T16:52:44.345Z,8.20
2019-01-26T16:55:13.823Z,8.30
2019-01-26T16:57:42.087Z,3.90
2019-01-26T17:00:25.269Z,7.78
2019-01-26T17:02:53.548Z,7.40
2019-01-26T17:05:25.771Z,6.55
2019-01-26T17:07:51.738Z,2.80
2019-01-26T17:10:21.050Z,2.17
2019-01-26T17:12:49.311Z,2.85
2019-01-26T17:15:17.557Z,2.67
2019-01-26T17:17:45.808Z,1.95
2019-01-26T17:20:19.731Z,2.67
2019-01-26T17:22:47.957Z,2.30
2019-01-26T17:25:16.192Z,2.80
2019-01-26T17:27:44.437Z,1.60
2019-01-26T17:30:15.695Z,1.85
2019-01-26T17:32:43.952Z,1.60
2019-01-26T17:35:12.197Z,2.25
2019-01-26T17:37:40.477Z,1.60
2019-01-26T17:40:17.577Z,1.80
2019-01-26T17:42:45.850Z,2.10
2019-01-26T17:45:15.715Z,1.55
2019-01-26T17:47:43.987Z,1.70
2019-01-26T17:50:14.849Z,1.25
2019-01-26T17:52:43.100Z,1.42
2019-01-26T17:55:11.698Z,1.77
2019-01-26T17:57:40.297Z,1.75
2019-01-26T18:00:15.148Z,1.92
2019-01-26T18:02:43.394Z,1.90
2019-01-26T18:05:11.825Z,2.10
2019-01-26T18:07:40.063Z,2.00
2019-01-26T18:10:11.794Z,1.85
2019-01-26T18:12:40.051Z,2.17
2019-01-26T18:15:13.579Z,1.72
2019-01-26T18:17:41.827Z,2.10
2019-01-26T18:20:16.204Z,1.80
2019-01-26T18:22:44.437Z,1.77
2019-01-26T18:25:12.934Z,1.90
2019-01-26T18:27:41.195Z,1.75
2019-01-26T18:30:15.376Z,1.90
2019-01-26T18:32:43.636Z,1.70
2019-01-26T18:35:13.417Z,2.50
2019-01-26T18:37:41.738Z,1.98
2019-01-26T18:40:16.103Z,2.20
2019-01-26T18:42:44.346Z,1.90
2019-01-26T18:45:15.457Z,1.90
2019-01-26T18:47:43.680Z,2.45
2019-01-26T18:50:17.935Z,2.22
2019-01-26T18:52:46.185Z,2.02
2019-01-26T18:55:14.439Z,2.52
2019-01-26T18:57:42.673Z,2.45
2019-01-26T19:00:14.182Z,2.75
2019-01-26T19:02:42.892Z,2.50
2019-01-26T19:05:14.216Z,2.55
2019-01-26T19:07:42.469Z,2.05
2019-01-26T19:10:12.262Z,2.30
2019-01-26T19:12:40.526Z,3.33
2019-01-26T19:15:18.485Z,2.10
2019-01-26T19:17:46.731Z,2.40
2019-01-26T19:20:15.723Z,2.25
2019-01-26T19:22:43.955Z,1.90
2019-01-26T19:25:16.780Z,1.90
2019-01-26T19:27:45.001Z,2.70
2019-01-26T19:30:16.398Z,2.15
2019-01-26T19:32:44.640Z,1.98
2019-01-26T19:35:12.879Z,4.40
2019-01-26T19:37:41.142Z,2.40
2019-01-26T19:40:18.737Z,2.62
2019-01-26T19:42:47.116Z,2.40
2019-01-26T19:45:18.359Z,2.50
2019-01-26T19:47:46.609Z,2.45
2019-01-26T19:50:19.530Z,2.25
2019-01-26T19:52:47.796Z,2.33
2019-01-26T19:55:17.283Z,2.50
2019-01-26T19:57:45.530Z,2.62
2019-01-26T20:00:13.778Z,2.37
2019-01-26T20:02:42.008Z,1.98
2019-01-26T20:05:22.029Z,2.22
2019-01-26T20:07:50.269Z,2.12
2019-01-26T20:10:18.895Z,2.25
2019-01-26T20:12:47.141Z,2.30
2019-01-26T20:15:18.650Z,2.10
2019-01-26T20:17:46.891Z,2.20
2019-01-26T20:20:20.874Z,2.05
2019-01-26T20:22:49.111Z,2.85
2019-01-26T20:25:17.399Z,2.00
2019-01-26T20:27:45.679Z,1.95
2019-01-26T20:30:18.950Z,3.80
2019-01-26T20:32:47.201Z,2.77
2019-01-26T20:35:15.449Z,1.85
2019-01-26T20:37:43.708Z,2.20
2019-01-26T20:40:16.871Z,2.10
2019-01-26T20:42:45.129Z,2.00
2019-01-26T20:45:29.725Z,3.70
2019-01-26T20:47:57.968Z,2.33
2019-01-26T20:50:26.212Z,2.87
2019-01-26T20:52:54.462Z,2.20
2019-01-26T20:55:22.716Z,2.25
2019-01-26T20:57:50.960Z,1.65
2019-01-26T21:00:22.225Z,1.42
2019-01-26T21:02:50.468Z,1.72
2019-01-26T21:05:18.745Z,1.65
2019-01-26T21:07:47.003Z,1.85
2019-01-26T21:10:20.533Z,1.80
2019-01-26T21:12:49.628Z,1.52
2019-01-26T21:15:17.905Z,1.52
2019-01-26T21:17:46.158Z,1.90
2019-01-26T21:20:16.995Z,1.85
2019-01-26T21:22:45.274Z,2.15
2019-01-26T21:25:13.835Z,1.50
2019-01-26T21:27:42.066Z,2.00
2019-01-26T21:30:13.474Z,1.75
2019-01-26T21:32:41.796Z,2.00
2019-01-26T21:35:10.739Z,2.10
2019-01-26T21:37:38.987Z,2.00
2019-01-26T21:40:22.205Z,1.77
2019-01-26T21:42:50.442Z,1.77
2019-01-26T21:45:18.704Z,1.90
2019-01-26T21:47:46.974Z,2.05
2019-01-26T21:50:23.772Z,1.85
2019-01-26T21:52:52.021Z,2.15
2019-01-26T21:55:20.290Z,2.20
2019-01-26T21:57:48.524Z,2.20
2019-01-26T22:00:19.688Z,2.37
2019-01-26T22:02:51.205Z,1.92
2019-01-26T22:05:19.458Z,2.50
2019-01-26T22:07:47.736Z,2.20
2019-01-26T22:10:21.278Z,2.10
2019-01-26T22:12:49.782Z,1.65
2019-01-26T22:15:19.828Z,2.30
2019-01-26T22:17:48.053Z,1.60
2019-01-26T22:20:18.542Z,3.45
2019-01-26T22:22:47.644Z,2.50
2019-01-26T22:25:15.891Z,2.50
2019-01-26T22:27:44.152Z,4.35
2019-01-26T22:30:15.658Z,3.40
2019-01-26T22:32:43.886Z,2.62
2019-01-26T22:35:12.149Z,2.70
2019-01-26T22:37:40.400Z,2.35
2019-01-26T22:40:11.842Z,1.98
2019-01-26T22:42:40.099Z,1.92
2019-01-26T22:45:10.323Z,1.85
2019-01-26T22:47:38.551Z,2.00
2019-01-26T22:50:10.052Z,1.50
2019-01-26T22:52:38.330Z,1.90
2019-01-26T22:55:09.641Z,1.52
2019-01-26T22:57:37.911Z,1.75
2019-01-26T23:00:29.202Z,1.50
2019-01-26T23:02:57.475Z,1.62
2019-01-26T23:05:53.275Z,1.80
2019-01-26T23:08:24.855Z,1.62
2019-01-26T23:11:01.945Z,1.77
2019-01-26T23:13:31.813Z,1.55
2019-01-26T23:16:20.211Z,1.77
2019-01-26T23:18:57.465Z,1.67
2019-01-26T23:21:31.553Z,1.52
2019-01-26T23:24:15.322Z,1.92
2019-01-26T23:27:04.870Z,2.17
2019-01-26T23:29:57.586Z,1.98
2019-01-26T23:32:25.838Z,1.92
2019-01-26T23:34:54.083Z,1.85
2019-01-26T23:37:22.348Z,1.60
2019-01-26T23:39:50.591Z,1.67
2019-01-26T23:42:18.843Z,1.60
2019-01-26T23:44:47.071Z,1.60
2019-01-26T23:47:15.323Z,1.62
2019-01-26T23:49:43.578Z,1.75
2019-01-26T23:52:11.834Z,1.92
2019-01-26T23:54:40.090Z,1.72
2019-01-26T23:57:08.355Z,1.90
2019-01-26T23:59:36.599Z,1.87
